Terminal Aerodrome Forecast
Issued by NWS Melbourne, FL

Home | Current Version | Previous Version | Text Only | Print | Product List | Glossary On
Versions: 1 2 3 4 5 6 7 8 9 10 11 12 13
000
FTUS42 KMLB 020500
TAFVRB
TAF
KVRB 020535Z 0206/0306 13004KT P6SM BKN250
     FM021400 08005KT P6SM VCTS SCT025CB SCT250
     FM021800 08010KT P6SM FEW030 SCT100 BKN250
     FM030000 11005KT P6SM FEW040 BKN100=

USA.gov is the U.S. government's official web portal to all federal, state and local government web resources and services.